»·PEaware :: CAX948 KLBF-KBJC

CAX948 :: KLBF-KBJC

FLIGHT INFORMATION

Flight Status: Arrived
Operator:
California Airlines (website)
More flights by this operator :: More flights under this callsign
Pilot: Tony D. (5369)
Aircraft: CIRRUS VISIONJET
(SF50)
More flights by this aircraft type
Origin: KLBF North Platte Regl-Bird
United States
Destination: KBJC Jeffco
United States
More flights between these airports :: More routes between these airports
Route: LBF V6 SNY LANDR9
File this flight plan on PilotEdge
Remarks:
Altitude:
(Current/Filed)
22,000ft
Speed:
(Current/Filed)
250kts
Departed: 07-Dec-18 02:01 PM
Arrived: 07-Dec-18 03:09 PM
Distance/Time
Traveled:
215nm/1:08
Distance/Time
To Go:
Arrived

Flight Plot

Page will automatically refresh every two minutes.


Map Options




Map Legend


Flown Route
Filed Route
Departure Airport
Arrival Airport
Navaid (VOR, NDB)
Fix

Horizontal Profiles

Position Reports

Time Latitude Longitude Heading Altitude Ground
Speed
07-Dec-18 13:49 41.131680 -100.695962 90 2778ft 0kts
07-Dec-18 13:50 41.131680 -100.695962 90 2778ft 0kts
07-Dec-18 13:51 41.131680 -100.695962 90 2778ft 0kts
07-Dec-18 13:52 41.131680 -100.695962 90 2778ft 0kts
07-Dec-18 13:54 41.131680 -100.695962 90 2778ft 0kts
07-Dec-18 13:55 41.131680 -100.695962 90 2778ft 0kts
07-Dec-18 13:56 41.131595 -100.695620 136 2778ft 3kts
07-Dec-18 13:57 41.131108 -100.694045 89 2777ft 5kts
07-Dec-18 13:58 41.131290 -100.690941 40 2775ft 8kts
07-Dec-18 13:59 41.131547 -100.690680 35 2775ft 0kts
07-Dec-18 14:00 41.131896 -100.689619 114 2774ft 7kts
07-Dec-18 14:01 41.119161 -100.666700 125 3187ft 166kts
07-Dec-18 14:02 41.082893 -100.610518 166 3805ft 207kts
07-Dec-18 14:03 41.057842 -100.662630 264 5015ft 188kts
07-Dec-18 14:04 41.050590 -100.730018 263 6211ft 182kts
07-Dec-18 14:05 41.050290 -100.795416 274 7407ft 175kts
07-Dec-18 14:06 41.052415 -100.866899 274 8675ft 211kts
07-Dec-18 14:07 41.054783 -100.947328 274 9904ft 224kts
07-Dec-18 14:08 41.057173 -101.030118 274 11108ft 217kts
07-Dec-18 14:09 41.059345 -101.106890 274 12372ft 209kts
07-Dec-18 14:10 41.061459 -101.183665 274 13678ft 207kts
07-Dec-18 14:11 41.063492 -101.258937 274 14971ft 202kts
07-Dec-18 14:12 41.065427 -101.332254 274 16259ft 196kts
07-Dec-18 14:12 41.067020 -101.392919 274 17126ft 199kts
07-Dec-18 14:14 41.069161 -101.478763 274 18287ft 199kts
07-Dec-18 14:15 41.070944 -101.551412 273 19269ft 196kts
07-Dec-18 14:16 41.072647 -101.622927 273 20246ft 191kts
07-Dec-18 14:17 41.074260 -101.692644 273 21243ft 186kts
07-Dec-18 14:17 41.075568 -101.749816 273 21861ft 191kts
07-Dec-18 14:19 41.077455 -101.834903 272 22345ft 207kts
07-Dec-18 14:19 41.078852 -101.900954 272 22342ft 222kts
07-Dec-18 14:21 41.080887 -101.999066 272 22340ft 232kts
07-Dec-18 14:21 41.082310 -102.070626 272 22338ft 234kts
07-Dec-18 14:22 41.083991 -102.157486 272 22336ft 237kts
07-Dec-18 14:23 41.085617 -102.245244 272 22334ft 239kts
07-Dec-18 14:24 41.087188 -102.333414 272 22323ft 240kts
07-Dec-18 14:25 41.088709 -102.421931 272 22311ft 240kts
07-Dec-18 14:26 41.090145 -102.510761 272 22302ft 240kts
07-Dec-18 14:27 41.091523 -102.599102 272 22300ft 240kts
07-Dec-18 14:28 41.092818 -102.687873 272 22305ft 240kts
07-Dec-18 14:29 41.094061 -102.776842 272 22304ft 241kts
07-Dec-18 14:30 41.095222 -102.866077 272 22303ft 242kts
07-Dec-18 14:31 41.096341 -102.955018 272 22303ft 242kts
07-Dec-18 14:32 41.061255 -103.031387 233 22302ft 252kts
07-Dec-18 14:33 41.013770 -103.099178 231 22301ft 250kts
07-Dec-18 14:34 40.966438 -103.165489 230 22299ft 247kts
07-Dec-18 14:35 40.919406 -103.230971 229 22292ft 245kts
07-Dec-18 14:36 40.872661 -103.295878 230 22284ft 245kts
07-Dec-18 14:37 40.825691 -103.361097 229 22280ft 245kts
07-Dec-18 14:38 40.779411 -103.425158 229 21389ft 235kts
07-Dec-18 14:39 40.735159 -103.486342 229 20113ft 226kts
07-Dec-18 14:40 40.692386 -103.545347 229 18842ft 221kts
07-Dec-18 14:41 40.650071 -103.603611 229 17577ft 221kts
07-Dec-18 14:42 40.608676 -103.660400 228 17039ft 208kts
07-Dec-18 14:43 40.568004 -103.716195 228 17038ft 212kts
07-Dec-18 14:44 40.526968 -103.772330 228 17037ft 214kts
07-Dec-18 14:45 40.485553 -103.828876 228 17037ft 214kts
07-Dec-18 14:46 40.444082 -103.885401 228 17037ft 214kts
07-Dec-18 14:47 40.402740 -103.941633 228 17036ft 214kts
07-Dec-18 14:48 40.361189 -103.998054 228 17036ft 214kts
07-Dec-18 14:49 40.323645 -104.058348 235 17036ft 213kts
07-Dec-18 14:50 40.288774 -104.121203 236 17035ft 213kts
07-Dec-18 14:51 40.254038 -104.183958 236 17033ft 213kts
07-Dec-18 14:52 40.219137 -104.246897 236 17026ft 213kts
07-Dec-18 14:53 40.184388 -104.309456 236 16482ft 209kts
07-Dec-18 14:54 40.149921 -104.371408 235 15547ft 212kts
07-Dec-18 14:55 40.114322 -104.435227 235 14585ft 215kts
07-Dec-18 14:56 40.079051 -104.498326 235 13638ft 209kts
07-Dec-18 14:57 40.044906 -104.559286 235 12729ft 207kts
07-Dec-18 14:58 40.010553 -104.620520 235 11812ft 208kts
07-Dec-18 14:59 39.975640 -104.682631 233 10875ft 208kts
07-Dec-18 15:00 39.940504 -104.745008 233 9931ft 207kts
07-Dec-18 15:01 39.905906 -104.806302 232 9001ft 207kts
07-Dec-18 15:02 39.871778 -104.866645 232 8091ft 207kts
07-Dec-18 15:03 39.838631 -104.925152 231 7205ft 194kts
07-Dec-18 15:04 39.839739 -104.984918 301 6998ft 171kts
07-Dec-18 15:05 39.866909 -105.036490 306 6802ft 170kts
07-Dec-18 15:06 39.889758 -105.079891 306 6016ft 116kts
07-Dec-18 15:07 39.905412 -105.109658 301 5597ft 49kts
07-Dec-18 15:08 39.908921 -105.113822 335 5597ft 12kts
07-Dec-18 15:09 39.909947 -105.112501 104 5597ft 0kts
07-Dec-18 15:10 39.909947 -105.112501 104 5597ft 0kts

Navigation Log

Ident Type
Flight plan parsing failed, navigation log unavailable